createdAt,value
2023-05-09T00:00:47.356Z,3.75
2023-05-09T00:03:14.509Z,3.75
2023-05-09T00:05:42.040Z,3.47
2023-05-09T00:08:08.718Z,3.35
2023-05-09T00:10:35.765Z,3.88
2023-05-09T00:13:02.497Z,3.72
2023-05-09T00:17:55.796Z,3.80
2023-05-09T00:20:23.038Z,3.38
2023-05-09T00:22:50.096Z,3.40
2023-05-09T00:25:17.115Z,4.00
2023-05-09T00:27:47.068Z,3.72
2023-05-09T00:30:13.780Z,3.85
2023-05-09T00:32:41.691Z,4.30
2023-05-09T00:35:10.923Z,4.03
2023-05-09T00:37:37.864Z,4.50
2023-05-09T00:40:06.567Z,3.97
2023-05-09T00:42:33.559Z,4.18
2023-05-09T00:45:00.236Z,4.50
2023-05-09T00:47:27.800Z,3.95
2023-05-09T00:49:55.062Z,3.88
2023-05-09T00:52:23.515Z,3.92
2023-05-09T00:54:54.964Z,3.47
2023-05-09T00:57:22.509Z,4.03
2023-05-09T00:59:49.504Z,3.85
2023-05-09T01:02:17.894Z,4.18
2023-05-09T01:04:45.962Z,3.97
2023-05-09T01:07:38.111Z,3.50
2023-05-09T01:10:10.908Z,3.35
2023-05-09T01:12:56.252Z,3.72
2023-05-09T01:15:36.942Z,3.70
2023-05-09T01:18:16.358Z,3.13
2023-05-09T01:20:47.055Z,4.18
2023-05-09T01:23:44.680Z,3.38
2023-05-09T01:26:29.612Z,3.80
2023-05-09T01:29:12.602Z,3.70
2023-05-09T01:31:44.321Z,3.70
2023-05-09T01:34:14.881Z,3.65
2023-05-09T02:01:40.975Z,3.05
2023-05-09T02:04:08.096Z,3.40
2023-05-09T02:06:36.202Z,3.35
2023-05-09T02:09:03.088Z,4.25
2023-05-09T02:11:29.610Z,3.10
2023-05-09T02:13:56.347Z,3.15
2023-05-09T02:18:49.557Z,3.30
2023-05-09T02:21:16.108Z,3.90
2023-05-09T02:23:46.801Z,3.40
2023-05-09T02:26:14.388Z,2.85
2023-05-09T02:28:43.489Z,2.75
2023-05-09T02:31:12.781Z,2.70
2023-05-09T02:33:44.716Z,3.00
2023-05-09T02:36:16.871Z,3.05
2023-05-09T02:38:44.271Z,2.72
2023-05-09T02:41:15.233Z,2.65
2023-05-09T02:43:42.704Z,2.95
2023-05-09T02:46:10.538Z,2.53
2023-05-09T02:48:38.622Z,2.83
2023-05-09T02:51:08.183Z,2.95
2023-05-09T02:53:36.912Z,2.65
2023-05-09T02:56:04.575Z,2.70
2023-05-09T02:58:31.082Z,2.75
2023-05-09T03:00:57.579Z,2.47
2023-05-09T03:03:27.850Z,2.75
2023-05-09T03:06:01.945Z,3.17
2023-05-09T03:08:32.746Z,2.50
2023-05-09T03:10:59.312Z,2.97
2023-05-09T03:13:26.488Z,2.92
2023-05-09T03:15:53.732Z,2.85
2023-05-09T03:18:20.639Z,2.40
2023-05-09T03:20:47.138Z,2.78
2023-05-09T03:23:14.068Z,2.45
2023-05-09T03:25:40.808Z,2.90
2023-05-09T03:33:10.303Z,2.65
2023-05-09T03:35:41.662Z,2.20
2023-05-09T03:38:08.647Z,2.60
2023-05-09T03:40:35.434Z,2.78
2023-05-09T03:45:28.388Z,2.58
2023-05-09T03:47:56.001Z,2.95
2023-05-09T03:50:25.726Z,2.85
2023-05-09T03:52:55.479Z,2.67
2023-05-09T03:55:24.353Z,2.85
2023-05-09T03:57:51.364Z,3.03
2023-05-09T04:05:13.507Z,2.67
2023-05-09T04:07:40.315Z,3.08
2023-05-09T04:10:08.633Z,2.65
2023-05-09T04:12:35.716Z,3.40
2023-05-09T04:15:02.634Z,2.78
2023-05-09T04:17:35.691Z,3.58
2023-05-09T04:20:06.417Z,2.53
2023-05-09T04:22:34.378Z,3.15
2023-05-09T04:25:04.267Z,3.22
2023-05-09T04:27:30.730Z,3.10
2023-05-09T04:29:57.428Z,2.95
2023-05-09T04:32:24.250Z,3.28
2023-05-09T04:37:17.705Z,3.35
2023-05-09T04:42:11.047Z,3.20
2023-05-09T04:44:37.691Z,4.05
2023-05-09T04:47:04.289Z,3.13
2023-05-09T04:49:32.297Z,3.40
2023-05-09T04:51:59.356Z,3.75
2023-05-09T04:54:33.562Z,3.55
2023-05-09T04:57:09.832Z,4.80
2023-05-09T04:59:41.952Z,4.88
2023-05-09T05:02:08.527Z,3.30
2023-05-09T05:04:36.382Z,3.97
2023-05-09T05:07:03.719Z,4.07
2023-05-09T05:09:33.276Z,4.38
2023-05-09T05:12:02.416Z,3.80
2023-05-09T05:14:31.121Z,3.60
2023-05-09T05:16:57.591Z,3.85
2023-05-09T05:19:24.051Z,3.00
2023-05-09T05:21:54.255Z,3.83
2023-05-09T05:24:20.894Z,3.42
2023-05-09T05:26:47.462Z,3.85
2023-05-09T05:29:14.006Z,3.33
2023-05-09T05:31:40.694Z,3.70
2023-05-09T05:36:37.409Z,3.63
2023-05-09T05:39:05.676Z,3.55
2023-05-09T05:41:34.530Z,3.50
2023-05-09T05:44:01.116Z,3.78
2023-05-09T05:46:27.892Z,3.63
2023-05-09T05:51:25.217Z,3.40
2023-05-09T05:53:57.698Z,3.00
2023-05-09T05:56:25.054Z,4.30
2023-05-09T05:58:51.609Z,3.75
2023-05-09T06:01:22.445Z,3.13
2023-05-09T06:03:56.279Z,2.80
2023-05-09T06:06:23.846Z,3.22
2023-05-09T06:08:53.886Z,3.45
2023-05-09T06:11:25.130Z,3.20
2023-05-09T06:13:51.963Z,3.40
2023-05-09T06:18:55.782Z,3.00
2023-05-09T06:21:24.557Z,2.92
2023-05-09T06:24:07.761Z,3.50
2023-05-09T06:26:39.950Z,3.28
2023-05-09T06:29:07.860Z,3.08
2023-05-09T06:31:43.887Z,2.95
2023-05-09T06:34:10.638Z,2.90
2023-05-09T06:36:39.531Z,2.67
2023-05-09T06:39:06.238Z,3.42
2023-05-09T06:41:35.160Z,3.03
2023-05-09T06:44:05.039Z,2.72
2023-05-09T06:46:31.732Z,3.00
2023-05-09T06:49:02.633Z,2.50
2023-05-09T06:51:29.491Z,2.72
2023-05-09T06:56:26.538Z,2.58
2023-05-09T06:58:53.628Z,2.75
2023-05-09T07:01:20.135Z,3.03
2023-05-09T07:03:47.629Z,2.38
2023-05-09T07:06:14.291Z,3.22
2023-05-09T07:08:40.847Z,3.10
2023-05-09T07:11:11.069Z,2.90
2023-05-09T07:13:43.503Z,2.70
2023-05-09T07:16:27.488Z,2.97
2023-05-09T07:19:06.331Z,2.60
2023-05-09T07:21:44.871Z,2.83
2023-05-09T07:24:11.654Z,2.75
2023-05-09T07:31:46.060Z,3.55
2023-05-09T07:34:12.560Z,3.45
2023-05-09T07:39:05.622Z,3.13
2023-05-09T07:41:32.483Z,3.28
2023-05-09T07:44:01.486Z,3.28
2023-05-09T07:46:28.388Z,2.58
2023-05-09T07:48:55.038Z,2.65
2023-05-09T07:51:21.928Z,2.88
2023-05-09T07:53:59.280Z,3.55
2023-05-09T07:58:55.076Z,2.80
2023-05-09T08:01:25.200Z,2.55
2023-05-09T08:03:56.533Z,2.45
2023-05-09T08:06:26.391Z,2.28
2023-05-09T08:09:01.461Z,2.70
2023-05-09T08:11:28.248Z,2.92
2023-05-09T08:13:55.005Z,2.65
2023-05-09T08:18:49.264Z,2.97
2023-05-09T08:21:15.688Z,2.45
2023-05-09T08:23:42.138Z,2.50
2023-05-09T08:26:08.637Z,2.88
2023-05-09T08:28:35.122Z,2.88
2023-05-09T08:31:02.296Z,2.65
2023-05-09T08:33:28.957Z,2.33
2023-05-09T08:35:56.435Z,3.15
2023-05-09T08:38:24.387Z,2.70
2023-05-09T08:40:51.041Z,3.00
2023-05-09T08:43:20.635Z,3.58
2023-05-09T08:45:53.802Z,2.72
2023-05-09T08:48:22.817Z,2.88
2023-05-09T08:50:49.948Z,2.80
2023-05-09T08:53:16.792Z,2.33
2023-05-09T08:58:14.617Z,2.47
2023-05-09T09:00:42.064Z,2.92
2023-05-09T09:03:11.972Z,2.35
2023-05-09T09:05:42.582Z,2.35
2023-05-09T09:08:14.235Z,2.60
2023-05-09T09:10:47.691Z,2.78
2023-05-09T09:13:15.876Z,2.45
2023-05-09T09:15:45.382Z,2.45
2023-05-09T09:18:16.460Z,2.88
2023-05-09T09:20:56.508Z,2.53
2023-05-09T09:23:25.504Z,2.42
2023-05-09T09:26:00.507Z,2.67
2023-05-09T09:28:28.377Z,2.85
2023-05-09T09:30:54.939Z,2.80
2023-05-09T09:33:22.989Z,2.53
2023-05-09T09:35:51.237Z,2.85
2023-05-09T09:38:21.986Z,3.20
2023-05-09T09:40:51.401Z,2.70
2023-05-09T09:43:22.364Z,2.35
2023-05-09T09:45:51.047Z,3.20
2023-05-09T09:48:17.634Z,2.70
2023-05-09T09:50:44.178Z,2.42
2023-05-09T09:53:10.884Z,2.92
2023-05-09T09:58:16.520Z,2.78
2023-05-09T10:00:43.101Z,2.47
2023-05-09T10:03:15.153Z,2.33
2023-05-09T10:05:43.626Z,2.75
2023-05-09T10:08:10.200Z,2.30
2023-05-09T10:10:37.948Z,2.38
2023-05-09T10:13:12.488Z,2.60
2023-05-09T10:15:52.121Z,2.47
2023-05-09T10:18:27.256Z,2.88
2023-05-09T10:20:55.067Z,2.40
2023-05-09T10:23:23.437Z,2.83
2023-05-09T10:26:00.286Z,2.40
2023-05-09T10:28:32.108Z,2.28
2023-05-09T10:31:10.321Z,2.65
2023-05-09T10:33:49.245Z,2.35
2023-05-09T10:36:19.591Z,2.45
2023-05-09T10:38:48.329Z,3.10
2023-05-09T10:41:19.040Z,2.78
2023-05-09T10:43:48.283Z,2.25
2023-05-09T10:46:16.089Z,2.60
2023-05-09T10:48:46.014Z,2.90
2023-05-09T10:51:13.272Z,2.08
2023-05-09T10:53:48.797Z,2.17
2023-05-09T10:56:35.989Z,2.60
2023-05-09T10:59:02.774Z,2.83
2023-05-09T11:04:16.784Z,2.45
2023-05-09T11:06:47.804Z,2.00
2023-05-09T11:09:39.242Z,2.70
2023-05-09T11:12:06.169Z,1.92
2023-05-09T11:14:33.864Z,2.30
2023-05-09T11:17:04.507Z,2.58
2023-05-09T11:19:49.689Z,2.42
2023-05-09T11:22:17.676Z,2.53
2023-05-09T11:24:49.237Z,2.45
2023-05-09T11:27:22.926Z,2.42
2023-05-09T11:29:54.438Z,3.08
2023-05-09T11:32:23.207Z,2.13
2023-05-09T11:34:50.005Z,2.67
2023-05-09T11:39:56.448Z,2.53
2023-05-09T11:42:28.637Z,2.80
2023-05-09T11:44:57.230Z,2.58
2023-05-09T11:47:24.972Z,2.28
2023-05-09T11:49:52.149Z,2.90
2023-05-09T11:52:20.327Z,2.47
2023-05-09T11:54:46.953Z,2.08
2023-05-09T11:57:24.882Z,2.40
2023-05-09T11:59:51.458Z,2.53
2023-05-09T12:02:18.178Z,2.30
2023-05-09T12:07:14.438Z,2.00
2023-05-09T12:09:41.083Z,2.10
2023-05-09T12:14:39.641Z,2.47
2023-05-09T12:17:14.758Z,2.58
2023-05-09T12:19:41.304Z,2.75
2023-05-09T12:22:09.998Z,2.28
2023-05-09T12:24:39.835Z,2.50
2023-05-09T12:27:08.040Z,3.50
2023-05-09T12:29:35.148Z,2.00
2023-05-09T12:32:01.669Z,2.45
2023-05-09T12:34:28.865Z,2.53
2023-05-09T12:36:55.313Z,2.60
2023-05-09T12:39:23.048Z,3.03
2023-05-09T12:42:00.962Z,2.10
2023-05-09T12:44:29.696Z,2.13
2023-05-09T12:47:02.016Z,2.30
2023-05-09T12:49:31.745Z,2.10
2023-05-09T12:52:02.983Z,2.10
2023-05-09T12:54:31.202Z,3.33
2023-05-09T12:56:58.675Z,2.25
2023-05-09T12:59:28.882Z,2.13
2023-05-09T13:02:00.646Z,2.53
2023-05-09T13:04:28.916Z,2.38
2023-05-09T13:06:57.606Z,3.28
2023-05-09T13:09:27.939Z,2.20
2023-05-09T13:11:54.546Z,2.85
2023-05-09T13:14:26.550Z,2.67
2023-05-09T13:16:54.322Z,2.40
2023-05-09T13:19:20.843Z,2.38
2023-05-09T13:21:47.949Z,2.17
2023-05-09T13:24:14.398Z,2.30
2023-05-09T13:26:40.921Z,2.10
2023-05-09T13:29:07.909Z,1.98
2023-05-09T13:31:34.552Z,2.40
2023-05-09T13:34:01.213Z,2.60
2023-05-09T13:38:54.303Z,2.60
2023-05-09T13:41:22.547Z,1.90
2023-05-09T13:43:54.882Z,2.28
2023-05-09T13:46:21.540Z,1.98
2023-05-09T13:51:18.644Z,2.17
2023-05-09T13:53:46.338Z,2.13
2023-05-09T13:56:14.640Z,2.10
2023-05-09T13:58:41.263Z,2.40
2023-05-09T14:01:13.817Z,2.20
2023-05-09T14:03:40.307Z,2.20
2023-05-09T14:06:08.748Z,2.45
2023-05-09T14:08:35.207Z,1.88
2023-05-09T14:11:01.922Z,1.92
2023-05-09T14:15:55.317Z,2.65
2023-05-09T14:18:21.792Z,2.58
2023-05-09T14:20:48.448Z,1.83
2023-05-09T14:25:41.281Z,2.75
2023-05-09T14:28:09.568Z,2.47
2023-05-09T14:30:36.425Z,2.20
2023-05-09T14:33:08.414Z,2.25
2023-05-09T14:35:34.958Z,2.20
2023-05-09T14:38:01.813Z,2.28
2023-05-09T14:40:32.182Z,2.10
2023-05-09T14:42:59.524Z,2.28
2023-05-09T14:45:26.508Z,2.45
2023-05-09T14:47:53.503Z,2.20
2023-05-09T14:50:21.783Z,2.40
2023-05-09T14:52:52.742Z,2.60
2023-05-09T14:55:19.910Z,2.17
2023-05-09T14:57:46.427Z,2.50
2023-05-09T15:00:21.405Z,3.08
2023-05-09T15:02:49.340Z,1.98
2023-05-09T15:05:16.866Z,2.10
2023-05-09T15:07:43.449Z,2.00
2023-05-09T15:10:10.475Z,2.15
2023-05-09T15:12:36.956Z,2.63
2023-05-09T15:15:15.147Z,2.47
2023-05-09T15:17:42.703Z,2.20
2023-05-09T15:20:09.745Z,2.10
2023-05-09T15:22:38.660Z,2.42
2023-05-09T15:25:06.296Z,2.22
2023-05-09T15:27:32.988Z,2.35
2023-05-09T15:32:26.180Z,3.22
2023-05-09T15:37:19.429Z,2.03
2023-05-09T15:39:46.369Z,2.20
2023-05-09T15:42:13.295Z,2.35
2023-05-09T15:44:40.984Z,2.08
2023-05-09T15:47:08.153Z,2.00
2023-05-09T15:49:34.932Z,2.17
2023-05-09T15:52:06.680Z,2.15
2023-05-09T15:54:34.189Z,2.05
2023-05-09T15:57:01.587Z,2.20
2023-05-09T15:59:28.361Z,1.90
2023-05-09T16:04:22.196Z,2.20
2023-05-09T16:06:49.113Z,2.40
2023-05-09T16:09:15.835Z,2.13
2023-05-09T16:11:43.080Z,2.17
2023-05-09T16:14:11.834Z,1.88
2023-05-09T16:16:42.780Z,2.25
2023-05-09T16:19:09.937Z,2.22
2023-05-09T16:21:37.826Z,2.15
2023-05-09T16:24:05.050Z,2.10
2023-05-09T16:26:31.586Z,2.35
2023-05-09T16:28:58.097Z,1.92
2023-05-09T16:31:26.641Z,2.00
2023-05-09T16:33:54.164Z,2.25
2023-05-09T16:36:21.332Z,2.20
2023-05-09T16:38:48.558Z,1.83
2023-05-09T16:41:16.839Z,2.38
2023-05-09T16:43:43.465Z,2.55
2023-05-09T16:46:11.053Z,1.88
2023-05-09T16:48:37.591Z,2.20
2023-05-09T16:51:04.820Z,2.08
2023-05-09T16:53:31.283Z,1.95
2023-05-09T16:55:57.748Z,1.65
2023-05-09T16:58:25.254Z,2.10
2023-05-09T17:00:51.948Z,2.35
2023-05-09T17:05:44.928Z,1.98
2023-05-09T17:08:11.482Z,2.33
2023-05-09T17:10:39.490Z,2.08
2023-05-09T17:13:08.753Z,2.28
2023-05-09T17:15:35.777Z,2.28
2023-05-09T17:18:03.126Z,2.40
2023-05-09T17:20:29.975Z,2.60
2023-05-09T17:25:31.259Z,2.57
2023-05-09T17:27:57.827Z,2.63
2023-05-09T17:30:24.467Z,3.10
2023-05-09T17:35:20.036Z,2.28
2023-05-09T17:37:46.876Z,2.35
2023-05-09T17:40:13.815Z,2.38
2023-05-09T17:42:41.853Z,2.58
2023-05-09T17:45:10.514Z,3.65
2023-05-09T17:47:37.707Z,2.13
2023-05-09T17:50:04.857Z,2.88
2023-05-09T17:52:31.692Z,2.75
2023-05-09T17:57:24.813Z,2.30
2023-05-09T17:59:52.456Z,2.50
2023-05-09T18:02:23.904Z,2.00
2023-05-09T18:04:51.441Z,3.83
2023-05-09T18:07:18.266Z,2.13
2023-05-09T18:12:11.197Z,2.83
2023-05-09T18:14:39.571Z,2.40
2023-05-09T18:17:06.125Z,2.45
2023-05-09T18:19:34.553Z,2.47
2023-05-09T18:22:01.683Z,2.78
2023-05-09T18:24:33.438Z,2.10
2023-05-09T18:26:59.888Z,2.50
2023-05-09T18:29:27.322Z,2.50
2023-05-09T18:31:56.091Z,2.50
2023-05-09T18:34:23.358Z,2.22
2023-05-09T18:36:52.474Z,2.63
2023-05-09T18:39:19.491Z,2.55
2023-05-09T18:41:46.017Z,3.00
2023-05-09T18:44:12.495Z,2.63
2023-05-09T18:46:39.064Z,2.50
2023-05-09T18:49:06.959Z,2.67
2023-05-09T18:51:35.744Z,2.80
2023-05-09T18:54:03.147Z,2.53
2023-05-09T18:56:29.697Z,2.60
2023-05-09T18:58:56.535Z,2.60
2023-05-09T19:01:24.494Z,2.38
2023-05-09T19:03:54.361Z,2.42
2023-05-09T19:06:21.848Z,2.40
2023-05-09T19:08:48.707Z,2.33
2023-05-09T19:13:48.502Z,2.08
2023-05-09T19:16:17.415Z,2.53
2023-05-09T19:18:44.016Z,2.53
2023-05-09T19:21:11.040Z,2.22
2023-05-09T19:23:40.689Z,2.30
2023-05-09T19:26:45.983Z,2.78
2023-05-09T19:29:13.081Z,2.50
2023-05-09T19:31:39.691Z,2.70
2023-05-09T19:34:06.419Z,2.67
2023-05-09T19:41:27.522Z,2.33
2023-05-09T19:43:54.323Z,2.70
2023-05-09T19:48:52.047Z,2.10
2023-05-09T19:51:18.617Z,2.58
2023-05-09T19:53:46.848Z,2.50
2023-05-09T19:56:13.867Z,2.13
2023-05-09T19:58:40.485Z,2.28
2023-05-09T20:01:07.295Z,2.90
2023-05-09T20:03:37.099Z,2.17
2023-05-09T20:06:04.216Z,2.15
2023-05-09T20:08:31.287Z,2.58
2023-05-09T20:10:57.762Z,2.28
2023-05-09T20:13:24.404Z,2.15
2023-05-09T20:15:51.117Z,2.08
2023-05-09T20:18:17.683Z,2.50
2023-05-09T20:20:46.971Z,2.33
2023-05-09T20:23:13.472Z,3.10
2023-05-09T20:25:40.035Z,2.60
2023-05-09T20:28:12.070Z,2.60
2023-05-09T20:30:38.957Z,2.70
2023-05-09T20:33:05.902Z,2.17
2023-05-09T20:35:32.710Z,1.98
2023-05-09T20:40:25.813Z,2.05
2023-05-09T20:42:59.612Z,2.30
2023-05-09T20:45:26.415Z,2.40
2023-05-09T20:50:19.568Z,2.40
2023-05-09T20:52:47.660Z,2.60
2023-05-09T20:55:14.244Z,2.72
2023-05-09T20:57:49.555Z,2.47
2023-05-09T21:00:16.548Z,2.90
2023-05-09T21:02:47.198Z,2.67
2023-05-09T21:05:14.296Z,2.88
2023-05-09T21:07:40.905Z,2.80
2023-05-09T21:10:17.083Z,2.15
2023-05-09T21:12:45.741Z,2.13
2023-05-09T21:15:12.408Z,2.65
2023-05-09T21:17:40.503Z,2.45
2023-05-09T21:20:08.095Z,2.35
2023-05-09T21:22:34.601Z,2.85
2023-05-09T21:25:01.212Z,2.95
2023-05-09T21:27:30.733Z,2.80
2023-05-09T21:29:58.308Z,2.85
2023-05-09T21:32:26.062Z,2.83
2023-05-09T21:41:38.408Z,3.13
2023-05-09T21:44:05.751Z,2.97
2023-05-09T21:46:35.180Z,2.53
2023-05-09T21:49:02.049Z,2.88
2023-05-09T21:53:55.446Z,3.85
2023-05-09T21:58:48.822Z,3.28
2023-05-09T22:01:16.692Z,3.28
2023-05-09T22:03:43.454Z,3.50
2023-05-09T22:06:10.018Z,3.35
2023-05-09T22:08:36.573Z,3.45
2023-05-09T22:11:03.298Z,3.47
2023-05-09T22:13:29.876Z,4.03
2023-05-09T22:15:56.684Z,3.80
2023-05-09T22:23:22.402Z,3.60
2023-05-09T22:25:49.267Z,3.78
2023-05-09T22:30:42.259Z,3.92
2023-05-09T22:33:15.081Z,3.80
2023-05-09T22:39:36.877Z,3.80
2023-05-09T22:42:07.033Z,3.97
2023-05-09T22:44:33.679Z,3.75
2023-05-09T22:47:04.724Z,3.70
2023-05-09T22:49:46.970Z,3.88
2023-05-09T22:52:16.101Z,4.22
2023-05-09T22:54:44.114Z,4.05
2023-05-09T22:57:10.981Z,3.95
2023-05-09T23:02:06.473Z,4.20
2023-05-09T23:04:32.975Z,4.00
2023-05-09T23:06:59.493Z,4.15
2023-05-09T23:09:27.726Z,3.85
2023-05-09T23:11:55.599Z,4.47
2023-05-09T23:14:24.670Z,4.07
2023-05-09T23:16:51.489Z,4.90
2023-05-09T23:19:18.106Z,4.55
2023-05-09T23:25:10.768Z,3.95
2023-05-09T23:27:40.874Z,5.05
2023-05-09T23:30:11.199Z,3.78
2023-05-09T23:32:37.816Z,4.78
2023-05-09T23:35:04.828Z,4.55
2023-05-09T23:37:38.132Z,3.85
2023-05-09T23:40:05.079Z,4.38
2023-05-09T23:42:33.822Z,4.68
2023-05-09T23:45:00.363Z,5.10
2023-05-09T23:47:27.034Z,3.90
2023-05-09T23:52:28.483Z,4.68
2023-05-09T23:54:55.036Z,4.72
2023-05-09T23:57:24.874Z,4.97
2023-05-09T23:59:51.444Z,4.20
